Time;durP1;ratioP1;P1;durP2;ratioP2;P2;SDS_P1;SDS_P2;PMS_P1;PMS_P2;Temp;Humidity;BMP_temperature;BMP_pressure;BME280_temperature;BME280_humidity;BME280_pressure;Samples;Min_cycle;Max_cycle;Signal;HPM_P1;HPM_P2
2022/02/21 00:00:59;;;;;;;22.70;4.30;;;;;;;5.61;100.00;99293.28;5097820;28;20511;-30
2022/02/21 00:03:30;;;;;;;29.33;4.40;;;;;;;5.64;100.00;99316.75;5100767;28;20043;-33
2022/02/21 00:05:58;;;;;;;25.27;4.18;;;;;;;5.66;100.00;99315.31;5104749;28;20089;-33
2022/02/21 00:08:26;;;;;;;29.60;4.90;;;;;;;5.70;100.00;99316.34;5102487;28;20055;-31
2022/02/21 00:10:53;;;;;;;34.33;5.15;;;;;;;5.73;100.00;99324.06;5105090;28;20044;-34
2022/02/21 00:13:22;;;;;;;22.98;3.63;;;;;;;5.76;100.00;99317.09;5103191;28;20372;-32
2022/02/21 00:15:50;;;;;;;25.70;4.53;;;;;;;5.73;100.00;99335.13;5104445;28;20359;-30
2022/02/21 00:18:18;;;;;;;28.80;4.20;;;;;;;5.74;100.00;99331.22;5097007;28;20485;-31
2022/02/21 00:20:45;;;;;;;26.80;4.68;;;;;;;5.76;100.00;99339.25;5099396;28;20056;-31
2022/02/21 00:23:14;;;;;;;27.02;4.13;;;;;;;5.79;100.00;99333.09;5098200;28;20040;-30
2022/02/21 00:25:42;;;;;;;28.98;4.20;;;;;;;5.81;100.00;99344.66;5101545;28;20048;-30
2022/02/21 00:28:10;;;;;;;20.27;4.05;;;;;;;5.80;100.00;99354.91;5097247;28;20508;-30
2022/02/21 00:30:42;;;;;;;26.52;3.55;;;;;;;5.78;100.00;99343.34;5102290;28;20047;-30
2022/02/21 00:33:10;;;;;;;23.58;3.67;;;;;;;5.75;100.00;99343.94;5095873;28;20418;-30
2022/02/21 00:35:38;;;;;;;24.48;3.85;;;;;;;5.73;100.00;99370.28;5104417;28;20052;-31
2022/02/21 00:38:05;;;;;;;25.55;4.03;;;;;;;5.68;100.00;99376.72;5095283;28;20040;-33
2022/02/21 00:40:33;;;;;;;29.75;4.60;;;;;;;5.65;100.00;99385.63;5104607;28;20055;-30
2022/02/21 00:43:02;;;;;;;29.85;4.40;;;;;;;5.61;100.00;99384.59;5094398;28;20039;-31
2022/02/21 00:45:30;;;;;;;31.70;4.80;;;;;;;5.55;100.00;99391.34;5103784;28;20043;-31
2022/02/21 00:47:59;;;;;;;25.20;3.88;;;;;;;5.52;100.00;99373.41;5095516;28;20523;-32
2022/02/21 00:50:27;;;;;;;22.55;3.83;;;;;;;5.48;100.00;99429.63;5103634;28;20050;-31
2022/02/21 00:52:55;;;;;;;23.15;3.40;;;;;;;5.44;100.00;99406.44;5095815;28;20062;-30
2022/02/21 00:55:24;;;;;;;21.88;4.03;;;;;;;5.44;100.00;99414.75;5102351;28;20051;-31
2022/02/21 00:57:52;;;;;;;23.48;3.85;;;;;;;5.41;100.00;99416.16;5096423;28;20042;-31
2022/02/21 01:00:21;;;;;;;24.75;4.00;;;;;;;5.44;100.00;99423.03;5099870;28;20044;-31
2022/02/21 01:02:49;;;;;;;23.85;3.95;;;;;;;5.44;100.00;99439.66;5103765;28;20048;-30
2022/02/21 01:05:18;;;;;;;30.67;4.10;;;;;;;5.45;100.00;99433.00;5102251;28;20058;-33
2022/02/21 01:07:46;;;;;;;27.48;4.18;;;;;;;5.47;100.00;99436.28;5096915;28;20055;-34
2022/02/21 01:10:13;;;;;;;24.63;3.70;;;;;;;5.49;100.00;99431.28;5100092;28;20067;-31
2022/02/21 01:12:41;;;;;;;26.00;4.20;;;;;;;5.51;100.00;99445.63;5096718;28;20048;-31
2022/02/21 01:15:13;;;;;;;23.80;3.50;;;;;;;5.48;100.00;99446.22;5099561;28;20070;-33
2022/02/21 01:17:41;;;;;;;19.50;4.10;;;;;;;5.47;100.00;99439.88;5098824;28;20158;-31
2022/02/21 01:20:10;;;;;;;18.30;3.28;;;;;;;5.47;100.00;99458.41;5102383;28;20048;-30
2022/02/21 01:22:39;;;;;;;28.33;3.97;;;;;;;5.51;100.00;99456.69;5103616;28;20044;-32
2022/02/21 01:25:09;;;;;;;27.27;4.03;;;;;;;5.54;100.00;99453.34;5109045;28;20044;-31
2022/02/21 01:27:36;;;;;;;30.05;3.88;;;;;;;5.55;100.00;99457.75;5094154;28;20068;-31
2022/02/21 01:30:07;;;;;;;26.30;4.03;;;;;;;5.58;100.00;99472.94;5099674;28;20047;-31
2022/02/21 01:32:35;;;;;;;31.95;4.72;;;;;;;5.61;100.00;99483.38;5101703;28;20044;-31
2022/02/21 01:35:03;;;;;;;28.15;4.22;;;;;;;5.48;100.00;99480.25;5110628;28;20050;-31
2022/02/21 01:37:31;;;;;;;31.83;4.85;;;;;;;5.39;100.00;99484.81;5101640;28;20039;-32
2022/02/21 01:40:00;;;;;;;32.35;4.30;;;;;;;5.32;100.00;99495.44;5109347;28;20055;-33
2022/02/21 01:42:28;;;;;;;25.88;4.25;;;;;;;5.30;100.00;99480.25;5101609;28;20050;-32
2022/02/21 01:44:55;;;;;;;28.10;4.13;;;;;;;5.30;100.00;99496.84;5110443;28;20047;-31
2022/02/21 01:47:23;;;;;;;24.20;3.83;;;;;;;5.27;100.00;99505.72;5100882;28;20044;-30
2022/02/21 01:49:51;;;;;;;22.52;3.60;;;;;;;5.23;100.00;99493.59;5110273;28;20093;-33
2022/02/21 01:52:20;;;;;;;24.38;4.03;;;;;;;5.16;100.00;99494.00;5103218;28;20126;-30
2022/02/21 01:54:48;;;;;;;19.77;3.58;;;;;;;5.12;100.00;99502.06;5108170;28;20107;-32
2022/02/21 01:57:18;;;;;;;27.90;4.97;;;;;;;5.12;100.00;99495.72;5105122;28;20577;-30
2022/02/21 01:59:46;;;;;;;29.38;4.32;;;;;;;5.12;100.00;99507.59;5110099;27;20486;-31
2022/02/21 02:02:14;;;;;;;22.40;4.07;;;;;;;5.11;100.00;99513.41;5102813;28;20059;-31
2022/02/21 02:04:42;;;;;;;31.83;4.53;;;;;;;5.07;100.00;99493.81;5108108;28;20040;-32
2022/02/21 02:07:11;;;;;;;32.15;4.78;;;;;;;5.07;100.00;99493.00;5105654;28;20056;-31
2022/02/21 02:09:39;;;;;;;34.03;4.70;;;;;;;5.06;100.00;99505.19;5106987;28;20044;-31
2022/02/21 02:12:08;;;;;;;30.08;4.35;;;;;;;5.04;100.00;99535.88;5105790;28;20043;-30
2022/02/21 02:14:39;;;;;;;24.77;4.18;;;;;;;5.01;100.00;99525.41;5106842;28;20044;-32
2022/02/21 02:17:09;;;;;;;25.27;3.90;;;;;;;4.99;100.00;99538.72;5108690;28;20070;-31
2022/02/21 02:19:37;;;;;;;24.08;3.47;;;;;;;5.00;100.00;99526.53;5105483;28;20043;-30
2022/02/21 02:22:12;;;;;;;24.48;3.33;;;;;;;5.00;100.00;99515.47;5106748;28;20495;-31
2022/02/21 02:24:40;;;;;;;21.85;4.38;;;;;;;5.02;100.00;99520.69;5104443;28;20051;-30
2022/02/21 02:27:09;;;;;;;20.77;3.95;;;;;;;5.05;100.00;99512.66;5107975;28;20044;-31
2022/02/21 02:29:38;;;;;;;25.27;3.55;;;;;;;5.05;100.00;99520.94;5101569;28;20473;-32
2022/02/21 02:32:07;;;;;;;24.98;4.65;;;;;;;5.05;100.00;99518.19;5109089;28;20046;-31
2022/02/21 02:34:36;;;;;;;24.95;3.72;;;;;;;5.04;100.00;99524.00;5099748;28;20513;-33
2022/02/21 02:37:04;;;;;;;22.70;3.92;;;;;;;5.03;100.00;99525.94;5108527;28;20052;-32
2022/02/21 02:39:33;;;;;;;29.40;4.82;;;;;;;5.08;100.00;99525.88;5100556;28;20043;-30
2022/02/21 02:42:02;;;;;;;20.85;3.85;;;;;;;5.05;100.00;99522.88;5108972;28;20039;-31
2022/02/21 02:44:29;;;;;;;20.33;3.80;;;;;;;5.00;100.00;99551.41;5099531;28;20487;-32
2022/02/21 02:46:57;;;;;;;19.73;3.05;;;;;;;4.97;100.00;99523.56;5109159;27;20051;-33
2022/02/21 02:49:25;;;;;;;18.00;3.33;;;;;;;4.96;100.00;99533.78;5100564;28;20051;-30
2022/02/21 02:51:53;;;;;;;28.50;3.72;;;;;;;4.98;100.00;99516.91;5097084;28;20370;-31
2022/02/21 02:54:20;;;;;;;19.50;3.30;;;;;;;4.98;100.00;99519.66;5104422;28;20044;-30
2022/02/21 02:56:49;;;;;;;19.63;3.40;;;;;;;4.97;100.00;99534.59;5099570;28;20049;-31
2022/02/21 02:59:18;;;;;;;23.40;3.67;;;;;;;4.95;100.00;99548.72;5102169;28;20414;-30
2022/02/21 03:01:45;;;;;;;27.55;4.18;;;;;;;4.99;100.00;99527.66;5105709;28;20490;-31
2022/02/21 03:04:13;;;;;;;21.65;3.30;;;;;;;4.97;100.00;99534.59;5103737;28;20456;-31
2022/02/21 03:06:41;;;;;;;25.60;3.42;;;;;;;4.97;99.98;99520.78;5106955;28;20044;-30
2022/02/21 03:09:09;;;;;;;31.42;4.60;;;;;;;5.01;100.00;99522.63;5104542;28;20048;-31
2022/02/21 03:11:36;;;;;;;23.65;4.50;;;;;;;5.04;100.00;99519.28;5104676;28;20082;-29
2022/02/21 03:14:06;;;;;;;22.98;4.05;;;;;;;5.06;100.00;99522.59;5105116;28;20050;-30
2022/02/21 03:16:33;;;;;;;23.27;4.10;;;;;;;5.06;100.00;99527.28;5105076;28;20524;-31
2022/02/21 03:19:01;;;;;;;21.75;3.97;;;;;;;5.07;100.00;99517.88;5104849;28;20496;-30
2022/02/21 03:21:29;;;;;;;25.00;4.00;;;;;;;5.08;100.00;99527.81;5102619;28;20043;-31
2022/02/21 03:23:56;;;;;;;23.23;3.55;;;;;;;5.11;100.00;99532.75;5107820;28;20431;-33
2022/02/21 03:26:24;;;;;;;22.50;3.88;;;;;;;5.12;100.00;99532.47;5099679;28;20040;-35
2022/02/21 03:28:52;;;;;;;25.30;3.53;;;;;;;5.13;100.00;99516.72;5108370;28;20051;-35
2022/02/21 03:31:21;;;;;;;18.20;3.70;;;;;;;5.08;100.00;99523.13;5099373;28;20055;-30
2022/02/21 03:33:49;;;;;;;21.10;3.30;;;;;;;5.07;100.00;99529.75;5107299;28;20394;-30
2022/02/21 03:36:17;;;;;;;25.58;3.90;;;;;;;5.06;100.00;99511.53;5099520;28;20483;-30
2022/02/21 03:38:44;;;;;;;24.83;4.38;;;;;;;5.09;100.00;99527.53;5107901;28;20093;-31
2022/02/21 03:41:12;;;;;;;24.77;4.10;;;;;;;5.10;100.00;99501.53;5098793;28;20062;-30
2022/02/21 03:43:40;;;;;;;19.60;3.53;;;;;;;5.07;100.00;99515.13;5107830;28;20059;-31
2022/02/21 03:46:08;;;;;;;25.92;4.25;;;;;;;5.08;100.00;99520.34;5101031;28;20051;-30
2022/02/21 03:48:37;;;;;;;23.67;4.20;;;;;;;5.12;100.00;99512.28;5106174;28;20474;-31
2022/02/21 03:51:05;;;;;;;20.05;3.20;;;;;;;5.07;100.00;99507.66;5102883;28;20512;-29
2022/02/21 03:53:33;;;;;;;20.30;3.35;;;;;;;5.07;100.00;99521.47;5102899;28;20473;-29
2022/02/21 03:56:00;;;;;;;20.17;3.50;;;;;;;5.08;100.00;99525.88;5101362;28;20047;-30
2022/02/21 03:58:28;;;;;;;22.50;3.88;;;;;;;5.08;100.00;99517.59;5106401;28;20126;-30
2022/02/21 04:00:56;;;;;;;22.90;3.53;;;;;;;5.09;100.00;99515.66;5102623;28;20048;-34
2022/02/21 04:03:23;;;;;;;24.05;4.00;;;;;;;5.07;100.00;99512.34;5104959;28;20565;-31
2022/02/21 04:05:53;;;;;;;24.48;3.72;;;;;;;5.03;100.00;99511.28;5103542;28;20387;-30
2022/02/21 04:08:23;;;;;;;22.10;3.65;;;;;;;5.03;100.00;99508.53;5104062;28;20469;-31
2022/02/21 04:10:50;;;;;;;25.77;4.00;;;;;;;5.04;100.00;99510.16;5104614;28;20131;-32
2022/02/21 04:13:18;;;;;;;26.17;4.03;;;;;;;5.07;100.00;99507.66;5102525;28;20048;-31
2022/02/21 04:15:46;;;;;;;22.65;4.63;;;;;;;5.05;100.00;99512.66;5105380;28;20062;-31
2022/02/21 04:18:14;;;;;;;22.35;4.00;;;;;;;5.04;100.00;99504.66;5100285;28;20047;-30
2022/02/21 04:20:41;;;;;;;22.88;4.00;;;;;;;5.02;100.00;99507.69;5107374;28;20044;-31
2022/02/21 04:23:10;;;;;;;26.88;4.07;;;;;;;5.03;100.00;99505.75;5097886;28;20040;-31
2022/02/21 04:25:38;;;;;;;28.27;4.20;;;;;;;5.06;100.00;99511.53;5107157;28;20054;-30
2022/02/21 04:28:06;;;;;;;23.50;4.03;;;;;;;5.08;100.00;99508.47;5099057;28;20055;-31
2022/02/21 04:30:34;;;;;;;23.00;3.85;;;;;;;5.08;100.00;99483.59;5106212;28;20051;-32
2022/02/21 04:33:01;;;;;;;24.05;3.85;;;;;;;5.08;100.00;99508.47;5098227;28;20040;-30
2022/02/21 04:35:29;;;;;;;26.77;4.32;;;;;;;5.08;100.00;99483.59;5106265;28;20514;-30
2022/02/21 04:37:57;;;;;;;24.27;4.32;;;;;;;5.07;100.00;99491.06;5099503;28;20486;-30
2022/02/21 04:40:28;;;;;;;30.27;4.10;;;;;;;5.07;100.00;99484.72;5106258;28;20483;-31
2022/02/21 04:42:57;;;;;;;21.42;3.58;;;;;;;5.06;100.00;99483.88;5099908;28;20047;-31
2022/02/21 04:45:29;;;;;;;25.27;3.50;;;;;;;5.03;100.00;99484.47;5105276;28;20046;-31
2022/02/21 04:47:57;;;;;;;23.35;3.58;;;;;;;5.03;100.00;99489.19;5102242;28;20135;-31
2022/02/21 04:50:25;;;;;;;24.70;4.20;;;;;;;5.04;100.00;99486.13;5103371;28;20046;-31
2022/02/21 04:52:53;;;;;;;16.58;2.88;;;;;;;5.03;100.00;99487.22;5102690;28;20047;-30
2022/02/21 04:55:21;;;;;;;24.23;4.25;;;;;;;5.03;100.00;99501.06;5104992;28;20422;-31
2022/02/21 04:57:50;;;;;;;21.63;3.28;;;;;;;5.06;100.00;99492.19;5101052;28;20048;-32
2022/02/21 05:00:18;;;;;;;22.85;4.03;;;;;;;5.06;100.00;99494.13;5112536;27;20386;-29
2022/02/21 05:02:46;;;;;;;29.17;4.28;;;;;;;5.04;100.00;99502.72;5104215;27;20134;-31
2022/02/21 05:05:14;;;;;;;21.52;3.85;;;;;;;5.05;100.00;99486.94;5102871;28;20036;-31
2022/02/21 05:07:43;;;;;;;23.30;4.10;;;;;;;4.99;100.00;99500.03;5103605;28;20048;-31
2022/02/21 05:10:11;;;;;;;24.60;3.95;;;;;;;5.00;100.00;99490.59;5100764;28;20405;-35
2022/02/21 05:12:40;;;;;;;16.95;3.03;;;;;;;4.97;100.00;99482.91;5104261;28;20134;-34
2022/02/21 05:15:10;;;;;;;29.67;4.70;;;;;;;4.95;100.00;99487.91;5099861;28;20044;-34
2022/02/21 05:17:39;;;;;;;26.45;4.00;;;;;;;4.97;100.00;99490.38;5105707;28;20047;-30
2022/02/21 05:20:09;;;;;;;24.27;4.20;;;;;;;4.95;100.00;99493.44;5098095;28;20135;-31
2022/02/21 05:22:37;;;;;;;19.88;3.85;;;;;;;4.96;100.00;99495.09;5106386;28;20071;-31
2022/02/21 05:25:06;;;;;;;27.80;4.18;;;;;;;4.94;100.00;99489.03;5096818;28;20052;-31
2022/02/21 05:27:35;;;;;;;25.55;4.45;;;;;;;4.94;100.00;99475.22;5106619;28;20074;-32
2022/02/21 05:30:03;;;;;;;29.30;4.63;;;;;;;4.93;100.00;99483.78;5097862;28;20410;-31
2022/02/21 05:32:33;;;;;;;28.80;3.88;;;;;;;4.97;100.00;99479.31;5105527;28;20047;-30
2022/02/21 05:35:01;;;;;;;24.05;4.38;;;;;;;4.98;100.00;99465.22;5097733;28;20052;-30
2022/02/21 05:37:29;;;;;;;27.58;4.20;;;;;;;4.99;100.00;99471.56;5106063;28;20060;-31
2022/02/21 05:39:56;;;;;;;29.92;4.43;;;;;;;4.99;100.00;99477.09;5098520;28;20044;-30
2022/02/21 05:42:24;;;;;;;30.10;4.30;;;;;;;4.98;100.00;99470.75;5105259;28;20126;-31
2022/02/21 05:44:52;;;;;;;27.40;4.07;;;;;;;5.01;100.00;99466.53;5101218;28;20165;-30
2022/02/21 05:47:20;;;;;;;22.25;3.40;;;;;;;5.02;100.00;99452.41;5102611;28;20048;-33
2022/02/21 05:49:49;;;;;;;24.48;4.38;;;;;;;4.98;100.00;99456.09;5099879;28;20405;-30
2022/02/21 05:52:17;;;;;;;28.85;4.53;;;;;;;4.99;100.00;99443.91;5104599;28;20075;-30
2022/02/21 05:54:45;;;;;;;25.20;4.65;;;;;;;4.98;100.00;99443.09;5101463;28;20150;-30
2022/02/21 05:57:13;;;;;;;28.23;4.63;;;;;;;4.98;100.00;99445.03;5104199;28;20043;-31
2022/02/21 05:59:41;;;;;;;21.98;4.00;;;;;;;4.93;100.00;99428.50;5101794;28;20040;-30
2022/02/21 06:02:08;;;;;;;25.17;3.72;;;;;;;4.96;100.00;99439.81;5102370;28;20456;-32
2022/02/21 06:04:36;;;;;;;27.65;5.75;;;;;;;4.97;100.00;99441.44;5102811;28;20040;-31
2022/02/21 06:07:05;;;;;;;27.77;4.28;;;;;;;4.94;100.00;99442.03;5100488;28;20043;-32
2022/02/21 06:09:33;;;;;;;29.15;4.05;;;;;;;4.93;100.00;99440.38;5106041;28;20040;-33
2022/02/21 06:12:01;;;;;;;28.73;4.57;;;;;;;4.97;100.00;99405.50;5102373;28;20490;-31
2022/02/21 06:14:29;;;;;;;29.42;4.55;;;;;;;4.95;100.00;99416.03;5108819;28;20048;-31
2022/02/21 06:16:56;;;;;;;31.90;5.32;;;;;;;4.96;100.00;99422.41;5100821;27;20043;-31
2022/02/21 06:19:24;;;;;;;25.30;4.47;;;;;;;4.95;100.00;99407.75;5109673;28;20437;-30
2022/02/21 06:21:52;;;;;;;30.13;5.25;;;;;;;5.01;100.00;99425.06;5100291;28;20055;-31
2022/02/21 06:24:21;;;;;;;22.45;3.90;;;;;;;4.99;100.00;99372.03;5109080;28;20053;-30
2022/02/21 06:26:49;;;;;;;29.45;4.97;;;;;;;5.03;100.00;99392.41;5099549;28;20076;-31
2022/02/21 06:29:16;;;;;;;32.88;4.78;;;;;;;5.00;100.00;99413.19;5107404;28;20409;-30
2022/02/21 06:31:44;;;;;;;28.30;5.10;;;;;;;5.02;100.00;99388.00;5099695;27;20162;-30
2022/02/21 06:34:12;;;;;;;32.55;4.65;;;;;;;5.06;100.00;99366.94;5107244;28;20055;-31
2022/02/21 06:36:40;;;;;;;19.83;4.22;;;;;;;5.06;100.00;99391.81;5101194;28;20131;-31
2022/02/21 06:39:08;;;;;;;23.13;3.63;;;;;;;5.06;100.00;99400.94;5104445;28;20126;-30
2022/02/21 06:41:37;;;;;;;24.42;4.75;;;;;;;5.06;100.00;99389.88;5102243;28;20094;-31
2022/02/21 06:44:05;;;;;;;23.02;3.70;;;;;;;5.07;100.00;99401.75;5104051;28;20044;-30
2022/02/21 06:46:33;;;;;;;31.55;4.65;;;;;;;5.12;100.00;99369.34;5100753;28;20052;-30
2022/02/21 06:49:01;;;;;;;24.45;4.07;;;;;;;5.16;100.00;99373.16;5105145;28;20052;-34
2022/02/21 06:51:30;;;;;;;25.63;5.28;;;;;;;5.18;100.00;99384.75;5103512;28;20113;-31
2022/02/21 06:53:58;;;;;;;34.70;5.50;;;;;;;5.21;100.00;99366.72;5104846;28;20135;-31
2022/02/21 06:56:26;;;;;;;25.77;3.88;;;;;;;5.22;100.00;99378.59;5098914;28;20822;-34
2022/02/21 06:58:55;;;;;;;22.33;3.55;;;;;;;5.26;100.00;99366.63;5100846;28;20489;-34
2022/02/21 07:01:23;;;;;;;22.77;4.30;;;;;;;5.28;100.00;99380.16;5098516;28;20464;-30
2022/02/21 07:03:51;;;;;;;22.02;3.78;;;;;;;5.29;100.00;99349.44;5101700;27;20655;-30
2022/02/21 07:06:19;;;;;;;24.80;4.47;;;;;;;5.32;100.00;99367.38;5096369;28;20452;-31
2022/02/21 07:08:47;;;;;;;19.20;3.45;;;;;;;5.36;100.00;99338.00;5105139;28;20147;-31
2022/02/21 07:11:15;;;;;;;25.13;4.38;;;;;;;5.36;100.00;99360.13;5095516;28;20048;-32
2022/02/21 07:13:42;;;;;;;35.85;5.07;;;;;;;5.34;100.00;99329.19;5104988;28;20047;-30
2022/02/21 07:16:12;;;;;;;26.38;4.70;;;;;;;5.26;100.00;99360.28;5096327;28;20055;-30
2022/02/21 07:18:39;;;;;;;28.00;4.82;;;;;;;5.10;100.00;99337.59;5103039;28;20049;-31
2022/02/21 07:21:07;;;;;;;21.77;3.90;;;;;;;4.96;100.00;99350.53;5095265;28;20075;-30
2022/02/21 07:23:36;;;;;;;24.63;4.13;;;;;;;4.79;100.00;99334.47;5104003;28;20054;-31
2022/02/21 07:26:05;;;;;;;21.75;3.70;;;;;;;4.67;100.00;99348.72;5094484;28;20126;-31
2022/02/21 07:28:33;;;;;;;23.55;3.92;;;;;;;4.58;100.00;99350.50;5102695;28;20048;-30
2022/02/21 07:31:01;;;;;;;27.25;3.95;;;;;;;4.48;100.00;99345.94;5096610;28;20055;-31
2022/02/21 07:33:30;;;;;;;26.95;3.72;;;;;;;4.35;100.00;99343.91;5099449;28;20050;-30
2022/02/21 07:35:57;;;;;;;25.27;3.60;;;;;;;4.25;100.00;99335.72;5098468;28;20062;-31
2022/02/21 07:38:25;;;;;;;20.88;3.25;;;;;;;4.21;100.00;99331.91;5099208;28;20047;-32
2022/02/21 07:40:54;;;;;;;24.92;3.45;;;;;;;4.12;100.00;99317.13;5105174;28;20040;-33
2022/02/21 07:43:25;;;;;;;23.70;3.58;;;;;;;3.98;100.00;99330.00;5102760;28;20459;-32
2022/02/21 07:45:53;;;;;;;26.75;3.83;;;;;;;3.93;100.00;99310.72;5102142;28;20053;-31
2022/02/21 07:48:21;;;;;;;24.83;3.88;;;;;;;3.94;100.00;99315.13;5102596;28;20059;-31
2022/02/21 07:50:54;;;;;;;33.33;5.32;;;;;;;3.98;100.00;99292.19;5103498;28;20386;-31
2022/02/21 07:53:22;;;;;;;26.55;4.30;;;;;;;4.03;100.00;99270.03;5098461;28;20075;-31
2022/02/21 07:55:51;;;;;;;25.15;4.43;;;;;;;4.10;100.00;99266.91;5099493;28;20444;-31
2022/02/21 07:58:19;;;;;;;25.90;4.10;;;;;;;4.12;100.00;99250.88;5097919;28;20044;-30
2022/02/21 08:00:47;;;;;;;30.80;4.15;;;;;;;4.21;100.00;99253.78;5100343;28;20057;-33
2022/02/21 08:03:14;;;;;;;28.17;4.20;;;;;;;4.34;100.00;99266.88;5095511;28;20132;-30
2022/02/21 08:05:42;;;;;;;33.45;4.15;;;;;;;4.45;100.00;99241.56;5103549;28;20054;-30
2022/02/21 08:08:15;;;;;;;38.83;6.07;;;;;;;4.56;100.00;99264.34;5093968;28;20374;-33
2022/02/21 08:10:42;;;;;;;36.45;5.47;;;;;;;4.67;100.00;99226.31;5103944;28;20469;-31
2022/02/21 08:13:10;;;;;;;34.10;5.63;;;;;;;4.74;100.00;99219.31;5096161;28;20143;-30
2022/02/21 08:15:38;;;;;;;34.45;5.50;;;;;;;4.83;100.00;99200.09;5103904;28;20052;-30
2022/02/21 08:18:06;;;;;;;38.92;5.88;;;;;;;4.92;100.00;99206.56;5096167;28;20063;-37
2022/02/21 08:20:33;;;;;;;28.80;5.25;;;;;;;4.94;100.00;99217.34;5104222;28;20040;-30
2022/02/21 08:23:01;;;;;;;40.88;6.85;;;;;;;4.93;100.00;99212.94;5095660;28;20086;-32
2022/02/21 08:25:30;;;;;;;37.13;5.22;;;;;;;4.86;100.00;99188.44;5103256;28;20044;-30
2022/02/21 08:27:58;;;;;;;32.30;5.05;;;;;;;4.87;100.00;99195.59;5095721;28;20051;-31
2022/02/21 08:30:26;;;;;;;33.60;5.20;;;;;;;4.85;100.00;99209.72;5101754;28;20050;-31
2022/02/21 08:32:54;;;;;;;33.28;5.25;;;;;;;4.90;100.00;99174.84;5097861;28;20482;-31
2022/02/21 08:35:23;;;;;;;35.22;5.75;;;;;;;4.93;100.00;99175.06;5099974;28;20043;-31
2022/02/21 08:37:51;;;;;;;40.75;5.72;;;;;;;5.00;100.00;99181.00;5097892;28;20040;-33
2022/02/21 08:40:21;;;;;;;39.88;5.90;;;;;;;5.05;100.00;99150.50;5100004;28;20051;-33
2022/02/21 08:42:50;;;;;;;37.95;5.25;;;;;;;5.08;100.00;99160.94;5096144;28;20139;-30
2022/02/21 08:45:18;;;;;;;30.00;5.35;;;;;;;5.17;100.00;99148.06;5099818;28;20489;-30
2022/02/21 08:47:46;;;;;;;35.50;5.78;;;;;;;5.24;100.00;99141.31;5098196;28;20051;-34
2022/02/21 08:50:14;;;;;;;36.75;5.40;;;;;;;5.33;100.00;99151.34;5098503;28;20039;-30
2022/02/21 08:52:43;;;;;;;39.55;6.07;;;;;;;5.44;100.00;99147.25;5099767;28;20470;-31
2022/02/21 08:55:15;;;;;;;33.20;5.53;;;;;;;5.47;100.00;99163.22;5096393;28;20135;-30
2022/02/21 08:57:43;;;;;;;37.65;6.18;;;;;;;5.50;100.00;99131.38;5100462;28;20059;-31
2022/02/21 09:00:15;;;;;;;41.28;6.28;;;;;;;5.50;100.00;99139.69;5096483;28;20056;-31
2022/02/21 09:02:44;;;;;;;39.83;5.85;;;;;;;5.52;100.00;99126.34;5101865;28;20058;-31
2022/02/21 09:05:32;;;;;;;32.85;6.25;;;;;;;5.44;100.00;99125.13;5097705;28;20051;-31
2022/02/21 09:08:00;;;;;;;35.00;5.90;;;;;;;5.47;100.00;99118.16;5101168;28;20418;-31
2022/02/21 09:10:28;;;;;;;29.38;4.60;;;;;;;5.47;100.00;99116.22;5095000;28;20048;-31
2022/02/21 09:12:56;;;;;;;38.72;6.75;;;;;;;5.48;100.00;99119.78;5103516;28;20079;-32
2022/02/21 09:15:25;;;;;;;41.05;6.95;;;;;;;5.52;100.00;99109.75;5095629;28;20048;-33
2022/02/21 09:17:53;;;;;;;42.35;7.55;;;;;;;5.59;100.00;99107.41;5103248;28;20075;-31
2022/02/21 09:20:21;;;;;;;34.42;5.32;;;;;;;5.65;100.00;99117.22;5095082;28;20055;-31
2022/02/21 09:22:49;;;;;;;40.25;5.68;;;;;;;5.68;100.00;99096.41;5103952;28;20086;-32
2022/02/21 09:25:17;;;;;;;40.28;6.30;;;;;;;5.71;100.00;99102.16;5094467;28;20174;-34
2022/02/21 09:27:45;;;;;;;34.47;5.30;;;;;;;5.76;100.00;99099.28;5103818;28;20155;-31
2022/02/21 09:30:13;;;;;;;31.10;5.85;;;;;;;5.78;100.00;99102.56;5095360;28;20050;-31
2022/02/21 09:32:42;;;;;;;33.88;6.07;;;;;;;5.81;100.00;99121.28;5101410;28;20505;-32
2022/02/21 09:35:11;;;;;;;25.17;4.47;;;;;;;5.79;100.00;99098.66;5096107;28;20108;-32
2022/02/21 09:37:40;;;;;;;41.38;5.47;;;;;;;5.81;100.00;99112.97;5100676;28;20400;-32
2022/02/21 09:40:10;;;;;;;33.67;5.80;;;;;;;5.84;100.00;99128.16;5097306;28;20044;-31
2022/02/21 09:42:39;;;;;;;45.15;6.72;;;;;;;5.91;100.00;99152.69;5100142;28;20070;-30
2022/02/21 09:45:12;;;;;;;45.33;6.68;;;;;;;5.95;100.00;99137.91;5106545;28;20498;-31
2022/02/21 09:47:40;;;;;;;33.47;5.63;;;;;;;5.97;100.00;99124.59;5106041;28;20058;-31
2022/02/21 09:50:29;;;;;;;36.97;5.53;;;;;;;5.96;100.00;99109.09;5107427;28;20051;-31
2022/02/21 09:53:01;;;;;;;27.67;6.07;;;;;;;5.95;100.00;99126.84;5104553;27;20050;-35
2022/02/21 09:55:29;;;;;;;48.10;6.40;;;;;;;6.00;100.00;99123.13;5101484;28;20036;-31
2022/02/21 09:57:57;;;;;;;34.88;5.72;;;;;;;6.02;100.00;99116.13;5103385;28;20047;-30
2022/02/21 10:00:26;;;;;;;28.10;4.85;;;;;;;6.04;100.00;99102.00;5099534;27;20140;-33
2022/02/21 10:02:55;;;;;;;28.17;4.50;;;;;;;6.05;100.00;99111.94;5103458;28;20058;-32
2022/02/21 10:05:25;;;;;;;32.60;5.13;;;;;;;6.07;100.00;99110.50;5101402;28;20296;-31
2022/02/21 10:07:56;;;;;;;31.23;5.47;;;;;;;6.11;100.00;99110.69;5101969;28;20052;-32
2022/02/21 10:10:26;;;;;;;31.88;4.80;;;;;;;6.09;100.00;99118.50;5101907;28;20062;-34
2022/02/21 10:12:57;;;;;;;29.48;4.40;;;;;;;6.08;100.00;99095.53;5107111;28;20054;-36
2022/02/21 10:15:27;;;;;;;37.70;6.10;;;;;;;6.08;100.00;99084.44;5104942;28;20450;-37
2022/02/21 10:18:09;;;;;;;38.13;6.25;;;;;;;6.11;100.00;99099.63;5107658;27;20293;-32
2022/02/21 10:20:52;;;;;;;39.03;5.82;;;;;;;6.10;100.00;99081.38;5104539;28;20058;-38
2022/02/21 10:23:22;;;;;;;47.15;6.63;;;;;;;6.14;100.00;99093.47;5101940;28;20044;-29
2022/02/21 10:25:56;;;;;;;44.13;6.60;;;;;;;6.22;100.00;99082.44;5102497;28;20048;-31
2022/02/21 10:28:27;;;;;;;46.50;6.63;;;;;;;6.27;100.00;99105.59;5105738;28;20039;-31
2022/02/21 10:31:13;;;;;;;41.22;6.50;;;;;;;6.35;100.00;99099.31;5104623;28;20047;-31
2022/02/21 10:33:48;;;;;;;39.17;5.68;;;;;;;6.38;100.00;99107.84;5105196;28;20048;-32
2022/02/21 10:36:33;;;;;;;45.42;6.18;;;;;;;6.44;100.00;99114.88;5105298;28;20508;-31
2022/02/21 10:39:05;;;;;;;42.10;5.93;;;;;;;6.49;100.00;99109.19;5105056;28;20040;-34
2022/02/21 10:41:52;;;;;;;41.75;6.25;;;;;;;6.55;100.00;99107.13;5105899;28;20050;-32
2022/02/21 10:44:27;;;;;;;43.15;6.82;;;;;;;6.60;100.00;99112.53;5105366;28;20059;-33
2022/02/21 10:47:03;;;;;;;40.92;6.68;;;;;;;6.67;100.00;99121.22;5107217;28;20139;-31
2022/02/21 10:49:50;;;;;;;42.00;6.85;;;;;;;6.71;100.00;99130.53;5101765;28;20450;-30
2022/02/21 10:52:20;;;;;;;33.30;6.18;;;;;;;6.79;100.00;99120.66;5099407;28;20135;-32
2022/02/21 10:54:50;;;;;;;51.17;6.50;;;;;;;6.87;100.00;99129.00;5101757;28;20040;-32
2022/02/21 10:57:19;;;;;;;42.13;6.63;;;;;;;6.93;100.00;99131.66;5098156;28;20094;-35
2022/02/21 10:59:48;;;;;;;46.47;6.88;;;;;;;7.00;100.00;99148.66;5102146;28;20032;-32
2022/02/21 11:02:17;;;;;;;45.00;7.57;;;;;;;7.09;100.00;99143.97;5099424;28;20048;-31
2022/02/21 11:04:45;;;;;;;47.03;7.25;;;;;;;7.17;100.00;99157.09;5101536;28;20535;-34
2022/02/21 11:07:14;;;;;;;47.88;7.53;;;;;;;7.21;100.00;99153.34;5101672;28;20046;-30
2022/02/21 11:09:43;;;;;;;47.22;7.47;;;;;;;7.21;100.00;99166.38;5099337;28;20055;-30
2022/02/21 11:12:14;;;;;;;43.65;6.22;;;;;;;7.17;100.00;99166.22;5103342;28;20051;-30
2022/02/21 11:14:41;;;;;;;35.13;5.70;;;;;;;7.19;100.00;99172.25;5098391;28;20051;-33
2022/02/21 11:17:10;;;;;;;43.83;6.45;;;;;;;7.22;100.00;99171.63;5103923;28;20052;-31
2022/02/21 11:19:43;;;;;;;42.30;6.03;;;;;;;7.30;100.00;99172.00;5097599;28;20048;-33
2022/02/21 11:22:11;;;;;;;35.45;6.90;;;;;;;7.45;100.00;99179.88;5100089;28;20767;-32
2022/02/21 11:24:49;;;;;;;43.92;6.78;;;;;;;7.66;100.00;99189.28;5107437;28;20051;-31
2022/02/21 11:27:31;;;;;;;38.45;6.40;;;;;;;7.81;100.00;99208.28;5099612;28;20128;-31
2022/02/21 11:30:07;;;;;;;39.97;5.72;;;;;;;7.91;100.00;99218.28;5108318;28;20053;-31
2022/02/21 11:32:35;;;;;;;34.58;5.50;;;;;;;8.13;100.00;99220.97;5099472;28;20063;-31